createdAt,value
2018-07-27T05:00:19.109Z,88.10
2018-07-27T05:02:54.557Z,85.30
2018-07-27T05:05:22.799Z,82.60
2018-07-27T05:07:52.097Z,85.60
2018-07-27T05:10:22.296Z,84.10
2018-07-27T05:12:50.886Z,82.80
2018-07-27T05:15:19.149Z,81.90
2018-07-27T05:20:15.373Z,78.80
2018-07-27T05:22:43.601Z,77.30
2018-07-27T05:25:11.856Z,75.30
2018-07-27T05:27:40.077Z,70.60
2018-07-27T05:30:08.333Z,73.00
2018-07-27T05:32:36.560Z,71.80
2018-07-27T05:35:05.334Z,74.20
2018-07-27T05:37:33.776Z,76.20
2018-07-27T05:40:03.120Z,77.80
2018-07-27T05:42:31.454Z,72.20
2018-07-27T05:44:59.826Z,69.10
2018-07-27T05:47:28.136Z,66.60
2018-07-27T05:49:57.526Z,68.40
2018-07-27T05:52:25.777Z,66.20
2018-07-27T05:54:54.025Z,66.60
2018-07-27T05:57:22.315Z,63.60
2018-07-27T05:59:50.921Z,63.80
2018-07-27T06:02:22.073Z,64.50
2018-07-27T06:04:49.992Z,64.20
2018-07-27T06:07:18.577Z,60.90
2018-07-27T06:09:46.918Z,59.30
2018-07-27T06:12:15.180Z,62.80
2018-07-27T06:14:44.021Z,61.90
2018-07-27T06:17:12.296Z,57.90
2018-07-27T06:19:40.697Z,61.50
2018-07-27T06:22:08.965Z,67.00
2018-07-27T06:24:46.027Z,62.80
2018-07-27T06:27:14.361Z,60.50
2018-07-27T06:29:42.661Z,62.60
2018-07-27T06:32:11.292Z,59.90
2018-07-27T06:34:39.665Z,61.10
2018-07-27T06:37:08.184Z,61.90
2018-07-27T06:39:36.433Z,61.10
2018-07-27T06:42:15.458Z,58.80
2018-07-27T06:44:43.874Z,61.90
2018-07-27T06:47:12.086Z,58.70
2018-07-27T06:49:40.428Z,58.80
2018-07-27T06:52:08.841Z,59.80
2018-07-27T06:54:37.109Z,59.30
2018-07-27T06:57:05.435Z,58.70
2018-07-27T06:59:33.669Z,59.00
2018-07-27T07:02:02.065Z,60.20
2018-07-27T07:04:30.350Z,60.80
2018-07-27T07:06:58.617Z,62.00
2018-07-27T07:09:26.889Z,62.50
2018-07-27T07:11:55.114Z,61.10
2018-07-27T07:14:23.387Z,58.60
2018-07-27T07:16:51.574Z,58.20
2018-07-27T07:19:19.797Z,57.60
2018-07-27T07:21:47.981Z,58.40
2018-07-27T07:24:16.229Z,59.60
2018-07-27T07:26:44.448Z,57.20
2018-07-27T07:29:12.697Z,56.10
2018-07-27T07:31:40.931Z,56.40
2018-07-27T07:34:09.161Z,56.60
2018-07-27T07:36:37.387Z,56.70
2018-07-27T07:39:08.191Z,57.50
2018-07-27T07:41:36.520Z,58.30
2018-07-27T07:44:04.757Z,56.90
2018-07-27T07:46:33.006Z,56.70
2018-07-27T07:49:04.105Z,55.90
2018-07-27T07:51:32.981Z,57.10
2018-07-27T07:54:01.302Z,57.70
2018-07-27T07:56:29.805Z,57.50
2018-07-27T07:58:58.157Z,58.60
2018-07-27T08:01:26.405Z,60.80
2018-07-27T08:03:54.657Z,60.50
2018-07-27T08:06:22.936Z,60.00
2018-07-27T08:08:51.174Z,61.30
2018-07-27T08:11:19.398Z,63.30
2018-07-27T08:13:47.742Z,64.00
2018-07-27T08:16:15.996Z,63.30
2018-07-27T08:18:44.402Z,62.40
2018-07-27T08:21:13.075Z,63.20
2018-07-27T08:23:41.677Z,62.60
2018-07-27T08:26:42.921Z,62.50
2018-07-27T08:29:12.109Z,59.70
2018-07-27T08:31:41.825Z,61.90
2018-07-27T08:34:12.815Z,62.30
2018-07-27T08:36:41.887Z,62.80
2018-07-27T08:39:12.020Z,64.30
2018-07-27T08:41:41.104Z,65.40
2018-07-27T08:44:13.371Z,64.40
2018-07-27T08:46:45.761Z,63.20
2018-07-27T08:49:14.250Z,61.60
2018-07-27T08:51:42.842Z,62.10
2018-07-27T08:54:30.537Z,63.30
2018-07-27T08:57:05.110Z,63.60
2018-07-27T08:59:34.404Z,64.00
2018-07-27T09:02:14.816Z,64.60
2018-07-27T09:04:43.028Z,63.30
2018-07-27T09:07:11.253Z,63.60
2018-07-27T09:09:40.445Z,63.20
2018-07-27T09:12:08.897Z,61.90
2018-07-27T09:14:37.849Z,61.80
2018-07-27T09:17:06.077Z,61.50
2018-07-27T09:19:34.382Z,59.60
2018-07-27T09:22:02.669Z,58.60
2018-07-27T09:24:31.046Z,59.10
2018-07-27T09:26:59.234Z,58.60
2018-07-27T09:29:27.495Z,58.70
2018-07-27T09:31:55.722Z,58.30
2018-07-27T09:34:23.957Z,58.10
2018-07-27T09:36:53.302Z,58.50
2018-07-27T11:31:52.134Z,58.60
2018-07-27T11:36:49.376Z,53.50
2018-07-27T11:39:18.753Z,54.10
2018-07-27T11:41:47.467Z,54.90
2018-07-27T11:44:15.774Z,53.20
2018-07-27T11:46:46.053Z,53.00
2018-07-27T11:49:14.264Z,52.40
2018-07-27T11:51:44.630Z,50.60
2018-07-27T11:54:12.885Z,51.00
2018-07-27T11:56:41.112Z,52.40
2018-07-27T11:59:09.406Z,51.30
2018-07-27T12:01:37.696Z,51.70
2018-07-27T12:04:05.967Z,50.00
2018-07-27T12:06:34.233Z,50.50
2018-07-27T12:09:02.489Z,51.00
2018-07-27T12:11:30.789Z,50.80
2018-07-27T12:13:59.141Z,51.60
2018-07-27T12:16:28.540Z,50.60
2018-07-27T12:18:56.891Z,51.10
2018-07-27T12:21:25.173Z,49.50
2018-07-27T12:23:53.414Z,49.30
2018-07-27T12:26:21.972Z,49.20
2018-07-27T12:28:50.276Z,50.00
2018-07-27T12:31:18.481Z,49.90
2018-07-27T12:33:46.680Z,47.70
2018-07-27T12:36:14.908Z,48.30
2018-07-27T12:38:43.206Z,48.00
2018-07-27T12:41:11.519Z,48.30
2018-07-27T12:43:39.768Z,48.70
2018-07-27T12:46:07.993Z,47.20
2018-07-27T12:48:36.582Z,47.10
2018-07-27T12:51:04.837Z,47.80
2018-07-27T12:53:33.167Z,49.20
2018-07-27T12:56:01.372Z,50.10
2018-07-27T12:58:29.579Z,50.20
2018-07-27T13:00:57.817Z,51.10
2018-07-27T13:03:26.057Z,51.40
2018-07-27T13:05:55.330Z,51.30
2018-07-27T13:08:23.598Z,52.60
2018-07-27T13:10:51.902Z,53.00
2018-07-27T13:13:20.134Z,53.60
2018-07-27T13:15:48.421Z,53.80
2018-07-27T13:18:25.634Z,54.80
2018-07-27T13:20:55.275Z,54.90
2018-07-27T13:23:24.144Z,54.40
2018-07-27T13:28:38.431Z,54.70
2018-07-27T13:31:12.774Z,54.20
2018-07-27T13:33:55.748Z,54.40
2018-07-27T13:36:24.016Z,54.40
2018-07-27T13:38:52.187Z,54.40
2018-07-27T13:41:20.438Z,54.10
2018-07-27T13:43:48.764Z,54.10
2018-07-27T13:46:16.980Z,54.20
2018-07-27T13:48:45.214Z,53.90
2018-07-27T13:51:16.493Z,53.60
2018-07-27T13:53:44.746Z,52.50
2018-07-27T13:56:13.025Z,53.20
2018-07-27T13:58:41.349Z,53.20
2018-07-27T14:01:09.673Z,53.20
2018-07-27T14:03:37.910Z,53.50
2018-07-27T14:06:06.199Z,52.80
2018-07-27T14:08:34.437Z,52.20
2018-07-27T14:11:02.684Z,52.30
2018-07-27T14:13:30.990Z,52.30
2018-07-27T14:15:59.258Z,52.70
2018-07-27T14:18:28.541Z,52.90
2018-07-27T14:20:57.014Z,52.70
2018-07-27T14:23:26.228Z,52.80
2018-07-27T14:25:56.465Z,51.90
2018-07-27T14:28:24.767Z,53.00
2018-07-27T14:30:55.089Z,52.20
2018-07-27T14:33:23.333Z,52.20
2018-07-27T14:35:51.564Z,51.50
2018-07-27T14:38:20.140Z,51.80
2018-07-27T14:40:48.413Z,51.40
2018-07-27T14:43:16.651Z,50.10
2018-07-27T14:45:44.962Z,50.90
2018-07-27T14:48:13.461Z,50.70
2018-07-27T14:50:42.025Z,49.50
2018-07-27T14:53:10.304Z,49.80
2018-07-27T14:55:38.544Z,48.90
2018-07-27T14:58:14.688Z,48.90
2018-07-27T15:00:43.039Z,49.70
2018-07-27T15:03:11.326Z,49.20
2018-07-27T15:05:39.605Z,49.30
2018-07-27T15:08:07.941Z,49.00
2018-07-27T15:10:36.266Z,49.80
2018-07-27T15:13:04.558Z,50.30
2018-07-27T15:15:36.459Z,50.30
2018-07-27T15:18:04.678Z,50.90
2018-07-27T15:20:32.941Z,50.20
2018-07-27T15:23:01.229Z,49.80
2018-07-27T15:25:29.581Z,49.10
2018-07-27T15:28:02.986Z,48.90
2018-07-27T15:30:31.341Z,49.40
2018-07-27T15:32:59.592Z,50.00
2018-07-27T15:35:28.030Z,50.80
2018-07-27T15:38:00.007Z,51.20
2018-07-27T15:40:28.265Z,51.50
2018-07-27T15:42:56.690Z,51.50
2018-07-27T15:45:24.963Z,51.70
2018-07-27T15:47:53.226Z,51.80
2018-07-27T15:50:21.555Z,51.40
2018-07-27T15:52:49.913Z,52.00
2018-07-27T15:57:46.624Z,52.30
2018-07-27T16:00:14.998Z,52.50
2018-07-27T16:02:43.352Z,52.20
2018-07-27T16:05:12.702Z,52.50
2018-07-27T16:07:40.974Z,53.10
2018-07-27T16:10:09.212Z,52.80
2018-07-27T16:12:38.485Z,52.50
2018-07-27T16:15:06.829Z,52.90
2018-07-27T16:17:35.145Z,52.70
2018-07-27T16:22:31.493Z,53.40
2018-07-27T16:24:59.845Z,53.50
2018-07-27T16:27:28.129Z,53.70
2018-07-27T16:29:56.502Z,53.70
2018-07-27T16:32:25.850Z,54.00
2018-07-27T16:34:54.255Z,53.70
2018-07-27T16:37:22.577Z,53.70
2018-07-27T16:39:51.102Z,53.50
2018-07-27T16:42:19.342Z,53.30
2018-07-27T16:44:47.595Z,53.40
2018-07-27T16:47:15.935Z,53.20
2018-07-27T16:49:44.208Z,53.10
2018-07-27T16:52:12.462Z,52.90
2018-07-27T16:54:40.737Z,52.90
2018-07-27T16:57:10.149Z,52.40
2018-07-27T16:59:38.617Z,52.80
2018-07-27T17:02:06.872Z,51.90
2018-07-27T17:04:35.173Z,51.50
2018-07-27T17:07:04.047Z,52.80
2018-07-27T17:09:32.700Z,52.20
2018-07-27T17:12:01.046Z,52.60
2018-07-27T17:14:29.270Z,52.50
2018-07-27T17:16:57.570Z,51.90
2018-07-27T17:19:25.874Z,52.30
2018-07-27T17:21:54.293Z,52.20
2018-07-27T17:24:22.491Z,52.30
2018-07-27T17:26:50.818Z,52.60
2018-07-27T17:29:19.110Z,52.20
2018-07-27T17:31:47.452Z,52.40
2018-07-27T17:34:15.784Z,52.50
2018-07-27T17:36:44.020Z,52.30
2018-07-27T17:39:12.313Z,52.00
2018-07-27T17:41:40.504Z,52.50
2018-07-27T17:44:09.356Z,52.70
2018-07-27T17:46:37.980Z,52.80
2018-07-27T17:49:06.840Z,52.90
2018-07-27T17:51:39.133Z,53.00
2018-07-27T17:54:08.383Z,53.20
2018-07-27T17:56:37.010Z,53.00
2018-07-27T17:59:05.525Z,53.40
2018-07-27T18:01:33.808Z,52.90
2018-07-27T18:04:02.057Z,53.80
2018-07-27T18:06:30.301Z,53.40
2018-07-27T18:08:58.554Z,53.80
2018-07-27T18:11:26.788Z,53.70
2018-07-27T18:13:55.041Z,52.70
2018-07-27T18:16:23.308Z,53.30
2018-07-27T18:18:51.601Z,53.20
2018-07-27T18:21:19.852Z,53.60
2018-07-27T18:23:48.160Z,54.20
2018-07-27T18:26:16.507Z,54.90
2018-07-27T18:28:45.818Z,53.80
2018-07-27T18:31:14.090Z,54.00
2018-07-27T18:33:42.345Z,54.00
2018-07-27T18:36:10.601Z,54.90
2018-07-27T18:41:06.947Z,56.30
2018-07-27T18:43:35.171Z,56.70
2018-07-27T18:46:04.334Z,56.80
2018-07-27T18:48:32.729Z,57.30
2018-07-27T18:51:00.978Z,57.80
2018-07-27T18:53:29.389Z,58.20
2018-07-27T18:55:57.687Z,59.20
2018-07-27T18:58:25.977Z,59.80
2018-07-27T19:00:54.282Z,59.60
2018-07-27T19:05:58.315Z,59.50
2018-07-27T19:08:26.736Z,59.80
2018-07-27T19:11:01.658Z,60.30
2018-07-27T19:13:29.925Z,60.60
2018-07-27T19:15:58.368Z,60.90
2018-07-27T19:18:26.572Z,61.30
2018-07-27T19:20:55.225Z,62.00
2018-07-27T19:23:23.757Z,62.60
2018-07-27T19:25:59.266Z,63.20
2018-07-27T19:28:27.506Z,63.30
2018-07-27T19:30:56.465Z,64.20
2018-07-27T19:33:24.700Z,64.60
2018-07-27T19:35:54.824Z,66.00
2018-07-27T19:38:29.928Z,66.20
2018-07-27T19:40:58.874Z,67.10
2018-07-27T19:43:27.050Z,67.70
2018-07-27T19:45:55.259Z,68.60
2018-07-27T19:48:30.906Z,68.00
2018-07-27T19:51:06.214Z,68.10
2018-07-27T19:53:34.965Z,68.40
2018-07-27T19:56:03.222Z,68.80
2018-07-27T19:58:32.458Z,68.70
2018-07-27T20:03:56.686Z,70.20
2018-07-27T20:06:25.058Z,71.20
2018-07-27T20:08:53.457Z,71.60
2018-07-27T20:11:22.348Z,72.30
2018-07-27T20:13:50.554Z,72.60
2018-07-27T20:16:18.800Z,72.60
2018-07-27T20:18:49.071Z,73.00
2018-07-27T20:21:18.387Z,73.90
2018-07-27T20:23:46.685Z,73.90
2018-07-27T20:26:17.591Z,74.10
2018-07-27T20:28:45.870Z,74.80
2018-07-27T20:31:27.275Z,74.70
2018-07-27T20:33:55.541Z,75.40
2018-07-27T20:36:24.476Z,75.60
2018-07-27T20:38:59.082Z,74.30
2018-07-27T20:41:29.747Z,75.20
2018-07-27T20:44:12.546Z,76.80
2018-07-27T20:47:12.363Z,77.30
2018-07-27T20:49:42.350Z,77.10
2018-07-27T20:52:16.708Z,77.20
2018-07-27T21:07:23.492Z,79.30
2018-07-27T21:09:51.763Z,79.00
2018-07-27T21:12:19.971Z,80.00
2018-07-27T21:14:55.899Z,81.20
2018-07-27T21:20:09.989Z,81.20
2018-07-27T21:25:07.737Z,82.00
2018-07-27T21:27:36.016Z,81.80
2018-07-27T21:30:07.010Z,82.30
2018-07-27T21:32:37.002Z,82.10
2018-07-27T21:35:08.458Z,82.40
2018-07-27T21:37:36.713Z,83.30
2018-07-27T21:40:05.089Z,83.60
2018-07-27T21:42:33.382Z,83.00
2018-07-27T21:45:01.694Z,83.90
2018-07-27T21:47:29.923Z,84.30
2018-07-27T21:49:58.116Z,84.40
2018-07-27T21:52:26.316Z,85.40
2018-07-27T21:54:54.559Z,85.30
2018-07-27T21:57:22.776Z,86.10
2018-07-27T21:59:54.676Z,86.10
2018-07-27T22:02:22.973Z,86.70
2018-07-27T22:04:58.852Z,87.80
2018-07-27T22:07:28.264Z,88.90
2018-07-27T22:24:22.030Z,90.40
